createdAt,value
2019-03-21T00:01:27.514Z,3.80
2019-03-21T00:04:00.659Z,3.90
2019-03-21T00:06:31.153Z,3.27
2019-03-21T00:09:01.777Z,3.73
2019-03-21T00:11:59.608Z,4.40
2019-03-21T00:15:05.809Z,3.20
2019-03-21T00:17:42.446Z,4.13
2019-03-21T00:20:14.963Z,3.57
2019-03-21T00:22:45.351Z,4.43
2019-03-21T00:25:18.455Z,3.70
2019-03-21T00:27:49.134Z,3.80
2019-03-21T00:30:20.967Z,3.50
2019-03-21T00:32:51.233Z,4.20
2019-03-21T00:35:21.597Z,3.27
2019-03-21T00:37:52.171Z,3.50
2019-03-21T00:40:28.499Z,4.30
2019-03-21T00:43:00.089Z,3.33
2019-03-21T00:45:30.627Z,3.97
2019-03-21T00:48:02.527Z,3.37
2019-03-21T00:50:32.830Z,3.50
2019-03-21T00:53:03.832Z,3.50
2019-03-21T00:55:35.161Z,2.93
2019-03-21T00:58:05.703Z,3.33
2019-03-21T01:00:39.500Z,3.00
2019-03-21T01:03:10.493Z,2.90
2019-03-21T01:05:41.295Z,3.33
2019-03-21T01:08:11.651Z,3.93
2019-03-21T01:10:43.551Z,3.13
2019-03-21T01:13:14.179Z,3.30
2019-03-21T01:15:44.746Z,2.87
2019-03-21T01:18:14.991Z,3.87
2019-03-21T01:20:46.646Z,3.87
2019-03-21T01:23:16.863Z,3.53
2019-03-21T01:25:51.423Z,4.10
2019-03-21T01:28:22.380Z,4.27
2019-03-21T01:30:52.529Z,4.00
2019-03-21T01:33:22.801Z,4.13
2019-03-21T01:35:54.191Z,4.47
2019-03-21T01:38:24.472Z,4.10
2019-03-21T01:40:54.621Z,4.40
2019-03-21T01:43:25.825Z,4.27
2019-03-21T01:45:56.089Z,4.23
2019-03-21T01:48:26.434Z,5.40
2019-03-21T01:50:56.658Z,4.80
2019-03-21T01:53:26.957Z,5.13
2019-03-21T01:55:57.328Z,5.30
2019-03-21T01:58:27.452Z,5.10
2019-03-21T02:00:59.741Z,4.40
2019-03-21T02:03:29.951Z,4.57
2019-03-21T02:06:00.534Z,5.07
2019-03-21T02:08:30.994Z,4.57
2019-03-21T02:11:01.619Z,4.77
2019-03-21T02:13:32.131Z,4.40
2019-03-21T02:16:02.576Z,4.77
2019-03-21T02:18:33.520Z,4.20
2019-03-21T02:21:03.944Z,5.07
2019-03-21T02:23:34.495Z,4.20
2019-03-21T02:26:04.982Z,4.47
2019-03-21T02:28:36.571Z,4.30
2019-03-21T02:31:06.952Z,5.00
2019-03-21T02:33:37.676Z,3.90
2019-03-21T02:36:08.173Z,4.20
2019-03-21T02:38:38.520Z,4.43
2019-03-21T02:41:09.341Z,5.27
2019-03-21T02:43:39.893Z,4.73
2019-03-21T02:46:10.803Z,4.03
2019-03-21T02:48:40.998Z,5.13
2019-03-21T02:51:11.339Z,5.00
2019-03-21T02:53:41.493Z,5.93
2019-03-21T02:56:13.449Z,5.43
2019-03-21T02:58:43.673Z,5.27
2019-03-21T03:01:13.886Z,5.70
2019-03-21T03:03:44.048Z,4.87
2019-03-21T03:06:14.511Z,5.30
2019-03-21T03:08:44.719Z,6.17
2019-03-21T03:11:15.975Z,5.60
2019-03-21T03:13:47.864Z,5.50
2019-03-21T03:16:19.544Z,5.57
2019-03-21T03:18:49.928Z,5.67
2019-03-21T03:21:20.087Z,6.33
2019-03-21T03:23:50.471Z,5.70
2019-03-21T03:26:21.098Z,5.63
2019-03-21T03:28:51.404Z,5.57
2019-03-21T03:31:21.606Z,5.53
2019-03-21T03:33:52.313Z,5.97
2019-03-21T03:36:22.472Z,5.73
2019-03-21T03:38:53.365Z,5.33
2019-03-21T03:41:23.944Z,5.40
2019-03-21T03:43:54.649Z,5.97
2019-03-21T03:46:25.325Z,5.93
2019-03-21T03:48:59.740Z,5.90
2019-03-21T03:51:29.838Z,5.63
2019-03-21T03:54:01.564Z,6.10
2019-03-21T03:56:31.922Z,5.67
2019-03-21T03:59:02.526Z,6.10
2019-03-21T04:01:32.634Z,6.10
2019-03-21T04:04:02.948Z,5.87
2019-03-21T04:06:33.321Z,6.60
2019-03-21T04:09:04.886Z,5.83
2019-03-21T04:11:35.105Z,5.70
2019-03-21T04:14:05.380Z,5.90
2019-03-21T04:16:35.520Z,6.20
2019-03-21T04:19:05.870Z,6.20
2019-03-21T04:21:36.169Z,5.77
2019-03-21T04:24:06.569Z,5.67
2019-03-21T04:26:37.348Z,6.00
2019-03-21T04:29:07.647Z,6.37
2019-03-21T04:31:38.024Z,6.00
2019-03-21T04:34:09.307Z,5.17
2019-03-21T04:36:39.560Z,5.67
2019-03-21T04:39:10.636Z,5.73
2019-03-21T04:41:41.979Z,5.53
2019-03-21T04:44:14.246Z,5.10
2019-03-21T04:46:44.523Z,6.43
2019-03-21T04:49:14.809Z,5.47
2019-03-21T04:51:45.299Z,5.87
2019-03-21T04:54:15.885Z,5.90
2019-03-21T04:56:46.232Z,6.13
2019-03-21T04:59:16.600Z,5.73
2019-03-21T05:01:47.074Z,6.17
2019-03-21T05:04:21.502Z,6.60
2019-03-21T05:06:52.237Z,6.63
2019-03-21T05:09:22.631Z,5.87
2019-03-21T05:11:52.935Z,5.87
2019-03-21T05:14:23.204Z,6.00
2019-03-21T05:16:53.511Z,6.57
2019-03-21T05:19:23.865Z,5.83
2019-03-21T05:21:54.151Z,5.97
2019-03-21T05:24:24.512Z,6.10
2019-03-21T05:26:54.796Z,6.70
2019-03-21T05:29:25.120Z,6.47
2019-03-21T05:31:55.455Z,6.20
2019-03-21T05:34:25.799Z,6.37
2019-03-21T05:37:14.648Z,6.20
2019-03-21T05:39:45.175Z,5.70
2019-03-21T05:42:19.620Z,6.97
2019-03-21T05:44:49.838Z,5.97
2019-03-21T05:47:20.188Z,6.07
2019-03-21T05:49:51.611Z,7.17
2019-03-21T05:52:22.115Z,6.83
2019-03-21T05:54:52.547Z,6.47
2019-03-21T05:57:22.868Z,7.00
2019-03-21T05:59:53.213Z,7.10
2019-03-21T06:02:23.562Z,6.67
2019-03-21T06:04:53.895Z,7.10
2019-03-21T06:08:08.502Z,6.37
2019-03-21T06:10:39.968Z,6.53
2019-03-21T06:13:10.404Z,7.00
2019-03-21T06:15:41.041Z,7.03
2019-03-21T06:18:36.260Z,7.17
2019-03-21T06:21:15.705Z,7.30
2019-03-21T06:24:23.467Z,6.07
2019-03-21T06:27:17.787Z,7.10
2019-03-21T06:29:48.181Z,7.67
2019-03-21T06:32:18.706Z,6.77
2019-03-21T06:34:49.084Z,6.60
2019-03-21T06:37:19.260Z,7.87
2019-03-21T06:39:50.437Z,7.10
2019-03-21T06:42:20.727Z,7.57
2019-03-21T06:44:51.051Z,7.53
2019-03-21T06:47:21.421Z,7.50
2019-03-21T06:49:52.105Z,7.30
2019-03-21T06:52:22.556Z,7.30
2019-03-21T06:54:52.747Z,7.17
2019-03-21T06:57:23.157Z,8.53
2019-03-21T06:59:53.442Z,7.77
2019-03-21T07:02:24.685Z,10.70
2019-03-21T07:04:55.043Z,9.57
2019-03-21T07:07:25.303Z,11.77
2019-03-21T07:09:55.622Z,11.00
2019-03-21T07:12:25.991Z,11.30
2019-03-21T07:14:56.143Z,11.57
2019-03-21T07:17:26.494Z,11.10
2019-03-21T07:19:56.850Z,11.73
2019-03-21T07:22:27.133Z,12.27
2019-03-21T07:24:57.506Z,12.97
2019-03-21T07:27:27.681Z,12.73
2019-03-21T07:29:58.036Z,13.40
2019-03-21T07:32:33.301Z,12.17
2019-03-21T07:35:00.409Z,10.97
2019-03-21T07:37:30.670Z,10.13
2019-03-21T07:40:00.966Z,9.07
2019-03-21T07:42:31.348Z,10.07
2019-03-21T07:45:01.620Z,9.47
2019-03-21T07:47:31.912Z,10.63
2019-03-21T07:50:02.290Z,10.17
2019-03-21T07:52:32.613Z,10.77
2019-03-21T07:55:02.873Z,12.17
2019-03-21T07:57:33.425Z,11.10
2019-03-21T08:00:03.899Z,10.53
2019-03-21T08:02:34.053Z,10.90
2019-03-21T08:05:04.930Z,9.90
2019-03-21T08:07:35.126Z,9.73
2019-03-21T08:10:06.157Z,9.40
2019-03-21T08:12:36.415Z,11.10
2019-03-21T08:15:07.761Z,13.33
2019-03-21T08:17:38.089Z,12.43
2019-03-21T08:20:10.764Z,14.20
2019-03-21T08:22:41.021Z,15.67
2019-03-21T08:25:11.537Z,12.90
2019-03-21T08:27:41.811Z,10.40
2019-03-21T08:30:26.965Z,11.77
2019-03-21T08:32:57.081Z,11.03
2019-03-21T08:35:27.180Z,10.93
2019-03-21T08:37:57.352Z,11.00
2019-03-21T08:40:27.642Z,8.27
2019-03-21T08:42:57.767Z,7.90
2019-03-21T08:45:27.892Z,7.23
2019-03-21T08:47:58.231Z,6.60
2019-03-21T08:50:28.499Z,7.67
2019-03-21T08:52:58.794Z,6.77
2019-03-21T08:55:29.072Z,6.93
2019-03-21T08:57:59.252Z,6.47
2019-03-21T09:00:34.202Z,5.83
2019-03-21T09:03:01.471Z,6.60
2019-03-21T09:05:31.723Z,6.20
2019-03-21T09:08:01.897Z,6.77
2019-03-21T09:10:50.817Z,6.20
2019-03-21T09:13:21.063Z,5.90
2019-03-21T09:15:52.396Z,6.73
2019-03-21T09:18:22.691Z,7.53
2019-03-21T09:20:52.777Z,8.27
2019-03-21T09:23:22.908Z,7.67
2019-03-21T09:25:53.121Z,7.73
2019-03-21T09:28:23.568Z,7.73
2019-03-21T09:30:53.664Z,12.60
2019-03-21T09:33:23.846Z,15.10
2019-03-21T09:35:54.157Z,13.40
2019-03-21T09:38:24.457Z,15.43
2019-03-21T09:40:54.604Z,9.43
2019-03-21T09:43:26.910Z,8.90
2019-03-21T09:45:57.107Z,7.27
2019-03-21T09:48:27.409Z,7.13
2019-03-21T09:50:57.731Z,6.73
2019-03-21T09:53:27.843Z,7.43
2019-03-21T09:55:58.140Z,6.80
2019-03-21T09:58:28.258Z,7.03
2019-03-21T10:01:00.258Z,6.93
2019-03-21T10:03:30.392Z,7.50
2019-03-21T10:06:00.781Z,7.47
2019-03-21T10:08:32.144Z,7.87
2019-03-21T10:11:02.228Z,8.50
2019-03-21T10:13:32.401Z,7.00
2019-03-21T10:16:03.518Z,5.67
2019-03-21T10:18:33.670Z,6.10
2019-03-21T10:21:03.999Z,5.23
2019-03-21T10:23:34.182Z,5.07
2019-03-21T10:26:04.407Z,6.23
2019-03-21T10:28:34.635Z,6.13
2019-03-21T10:31:04.735Z,6.77
2019-03-21T10:33:34.837Z,6.33
2019-03-21T10:36:05.097Z,6.13
2019-03-21T10:38:36.994Z,5.50
2019-03-21T10:41:08.371Z,5.53
2019-03-21T10:43:39.807Z,6.00
2019-03-21T10:46:10.142Z,5.90
2019-03-21T10:48:58.948Z,6.33
2019-03-21T10:51:30.979Z,6.97
2019-03-21T10:54:01.120Z,7.87
2019-03-21T10:56:31.296Z,6.47
2019-03-21T10:59:01.539Z,5.23
2019-03-21T11:01:31.794Z,5.97
2019-03-21T11:04:01.998Z,5.60
2019-03-21T11:06:32.110Z,5.70
2019-03-21T11:09:02.255Z,6.90
2019-03-21T11:11:32.368Z,7.27
2019-03-21T11:14:02.511Z,8.27
2019-03-21T11:16:32.688Z,6.53
2019-03-21T11:19:02.806Z,9.43
2019-03-21T11:21:32.933Z,8.03
2019-03-21T11:24:03.174Z,7.07
2019-03-21T11:26:33.315Z,6.17
2019-03-21T11:29:03.492Z,7.07
2019-03-21T11:31:33.607Z,7.10
2019-03-21T11:34:03.771Z,5.67
2019-03-21T11:36:38.604Z,4.80
2019-03-21T11:39:08.896Z,4.97
2019-03-21T11:41:39.039Z,5.87
2019-03-21T11:44:09.145Z,5.70
2019-03-21T11:46:39.330Z,5.70
2019-03-21T11:49:09.474Z,5.27
2019-03-21T11:51:39.589Z,4.90
2019-03-21T11:54:09.718Z,5.93
2019-03-21T11:56:39.972Z,6.03
2019-03-21T11:59:10.294Z,5.63
2019-03-21T12:01:40.619Z,6.20
2019-03-21T12:04:10.815Z,5.73
2019-03-21T12:06:42.404Z,5.93
2019-03-21T12:09:12.691Z,7.63
2019-03-21T12:11:42.812Z,5.07
2019-03-21T12:14:13.073Z,6.47
2019-03-21T12:16:43.371Z,6.33
2019-03-21T12:19:13.491Z,5.80
2019-03-21T12:21:43.728Z,5.90
2019-03-21T12:24:15.187Z,5.27
2019-03-21T12:26:45.546Z,4.13
2019-03-21T12:29:16.714Z,4.40
2019-03-21T12:31:47.980Z,4.30
2019-03-21T12:34:18.238Z,4.23
2019-03-21T12:36:48.501Z,5.10
2019-03-21T12:39:18.621Z,4.90
2019-03-21T12:41:48.738Z,4.27
2019-03-21T12:44:18.921Z,3.90
2019-03-21T12:46:49.215Z,5.60
2019-03-21T12:49:19.511Z,4.73
2019-03-21T12:51:49.625Z,4.80
2019-03-21T12:54:19.962Z,4.00
2019-03-21T12:56:52.873Z,4.17
2019-03-21T12:59:21.985Z,3.40
2019-03-21T13:01:52.239Z,4.67
2019-03-21T13:04:22.493Z,4.50
2019-03-21T13:06:52.632Z,3.77
2019-03-21T13:09:22.960Z,6.03
2019-03-21T13:11:53.240Z,4.90
2019-03-21T13:14:23.375Z,5.07
2019-03-21T13:16:54.488Z,5.07
2019-03-21T13:19:24.628Z,3.80
2019-03-21T13:21:54.744Z,4.77
2019-03-21T13:24:24.876Z,3.60
2019-03-21T13:26:55.001Z,3.37
2019-03-21T13:29:25.306Z,4.17
2019-03-21T13:31:55.609Z,3.40
2019-03-21T13:34:44.449Z,2.90
2019-03-21T13:37:15.525Z,2.43
2019-03-21T13:40:04.484Z,4.20
2019-03-21T13:42:46.065Z,3.77
2019-03-21T13:45:16.248Z,2.73
2019-03-21T13:47:46.525Z,2.87
2019-03-21T13:50:18.961Z,2.40
2019-03-21T13:52:49.231Z,2.57
2019-03-21T13:55:19.338Z,2.43
2019-03-21T13:57:49.473Z,2.30
2019-03-21T14:00:21.336Z,2.53
2019-03-21T14:02:51.603Z,2.77
2019-03-21T14:05:21.871Z,2.57
2019-03-21T14:07:52.015Z,3.00
2019-03-21T14:10:22.115Z,2.63
2019-03-21T14:12:52.271Z,2.80
2019-03-21T14:15:22.657Z,3.07
2019-03-21T14:17:52.993Z,2.10
2019-03-21T14:20:23.213Z,2.30
2019-03-21T14:22:53.329Z,3.50
2019-03-21T14:25:23.779Z,3.27
2019-03-21T14:27:53.867Z,2.80
2019-03-21T14:30:24.003Z,3.30
2019-03-21T14:32:54.139Z,2.60
2019-03-21T14:35:24.205Z,3.00
2019-03-21T14:37:54.483Z,3.27
2019-03-21T14:40:24.571Z,2.60
2019-03-21T14:42:54.808Z,2.90
2019-03-21T14:45:24.915Z,2.60
2019-03-21T14:47:55.018Z,2.50
2019-03-21T14:50:25.170Z,2.70
2019-03-21T14:52:55.279Z,2.33
2019-03-21T14:55:25.382Z,2.27
2019-03-21T14:57:55.491Z,3.20
2019-03-21T15:00:25.673Z,3.60
2019-03-21T15:02:58.632Z,3.40
2019-03-21T15:05:28.788Z,3.20
2019-03-21T15:07:59.084Z,3.00
2019-03-21T15:10:29.170Z,2.37
2019-03-21T15:12:59.341Z,3.43
2019-03-21T15:15:48.165Z,4.07
2019-03-21T15:18:18.460Z,3.87
2019-03-21T15:20:48.722Z,2.73
2019-03-21T15:23:18.938Z,3.03
2019-03-21T15:25:49.168Z,3.00
2019-03-21T15:28:19.595Z,2.60
2019-03-21T15:30:49.717Z,2.80
2019-03-21T15:33:19.841Z,2.93
2019-03-21T15:35:50.039Z,2.90
2019-03-21T15:38:20.211Z,2.63
2019-03-21T15:40:50.460Z,2.33
2019-03-21T15:43:20.615Z,3.70
2019-03-21T15:45:50.698Z,2.67
2019-03-21T15:48:21.166Z,11.63
2019-03-21T15:51:03.533Z,6.20
2019-03-21T15:53:23.531Z,5.07
2019-03-21T15:55:53.675Z,10.70
2019-03-21T15:58:23.756Z,4.30
2019-03-21T16:00:58.443Z,6.73
2019-03-21T16:03:39.505Z,4.43
2019-03-21T16:06:09.774Z,4.50
2019-03-21T16:08:39.908Z,3.07
2019-03-21T16:11:10.063Z,2.30
2019-03-21T16:13:40.168Z,2.50
2019-03-21T16:16:10.273Z,2.80
2019-03-21T16:18:40.452Z,2.93
2019-03-21T16:21:10.720Z,2.60
2019-03-21T16:23:40.830Z,3.70
2019-03-21T16:26:10.972Z,2.97
2019-03-21T16:28:41.073Z,3.03
2019-03-21T16:31:11.226Z,2.57
2019-03-21T16:33:43.432Z,3.43
2019-03-21T16:36:13.085Z,2.90
2019-03-21T16:38:43.221Z,2.53
2019-03-21T16:41:13.339Z,3.63
2019-03-21T16:43:43.533Z,2.63
2019-03-21T16:46:13.751Z,2.73
2019-03-21T16:48:43.913Z,2.83
2019-03-21T16:51:14.030Z,3.20
2019-03-21T16:53:44.151Z,3.90
2019-03-21T16:56:14.352Z,3.10
2019-03-21T16:58:44.480Z,3.20
2019-03-21T17:01:14.586Z,3.40
2019-03-21T17:03:44.704Z,3.30
2019-03-21T17:06:14.856Z,3.37
2019-03-21T17:08:45.035Z,3.33
2019-03-21T17:11:15.175Z,2.77
2019-03-21T17:13:45.289Z,3.57
2019-03-21T17:16:15.527Z,3.47
2019-03-21T17:18:45.652Z,4.23
2019-03-21T17:21:15.786Z,3.73
2019-03-21T17:23:45.904Z,4.00
2019-03-21T17:26:16.142Z,4.10
2019-03-21T17:28:46.280Z,5.40
2019-03-21T17:31:16.431Z,5.47
2019-03-21T17:33:46.558Z,6.33
2019-03-21T17:36:16.700Z,5.37
2019-03-21T17:38:46.921Z,5.57
2019-03-21T17:41:17.413Z,6.60
2019-03-21T17:43:47.620Z,7.87
2019-03-21T17:46:17.769Z,11.90
2019-03-21T17:48:47.878Z,8.40
2019-03-21T17:51:18.132Z,8.47
2019-03-21T17:53:48.240Z,6.73
2019-03-21T17:56:18.357Z,6.80
2019-03-21T17:58:48.674Z,6.43
2019-03-21T18:01:19.163Z,6.33
2019-03-21T18:03:51.200Z,5.90
2019-03-21T18:06:32.316Z,5.37
2019-03-21T18:09:04.453Z,5.60
2019-03-21T18:11:34.890Z,5.43
2019-03-21T18:14:05.284Z,5.07
2019-03-21T18:16:37.230Z,7.07
2019-03-21T18:19:08.611Z,4.70
2019-03-21T18:21:38.939Z,4.60
2019-03-21T18:24:09.335Z,4.43
2019-03-21T18:26:41.023Z,4.40
2019-03-21T18:29:11.560Z,3.90
2019-03-21T18:31:42.110Z,4.30
2019-03-21T18:34:12.357Z,4.03
2019-03-21T18:36:44.692Z,3.90
2019-03-21T18:39:18.376Z,4.13
2019-03-21T18:41:48.927Z,4.83
2019-03-21T18:44:19.168Z,4.57
2019-03-21T18:46:50.457Z,3.97
2019-03-21T18:49:20.902Z,4.30
2019-03-21T18:51:51.375Z,4.70
2019-03-21T18:54:21.678Z,4.57
2019-03-21T18:56:54.491Z,6.73
2019-03-21T18:59:25.884Z,5.60
2019-03-21T19:01:58.950Z,4.77
2019-03-21T19:04:32.839Z,5.17
2019-03-21T19:07:03.377Z,5.00
2019-03-21T19:09:33.811Z,4.30
2019-03-21T19:12:04.097Z,4.80
2019-03-21T19:14:34.348Z,4.30
2019-03-21T19:17:06.888Z,4.37
2019-03-21T19:19:37.167Z,4.43
2019-03-21T19:22:08.912Z,4.27
2019-03-21T19:24:39.169Z,4.70
2019-03-21T19:27:09.458Z,4.07
2019-03-21T19:29:39.604Z,4.33
2019-03-21T19:32:09.800Z,4.40
2019-03-21T19:34:39.932Z,4.53
2019-03-21T19:37:10.139Z,3.97
2019-03-21T19:39:40.356Z,4.37
2019-03-21T19:42:10.522Z,4.50
2019-03-21T19:44:41.417Z,3.93
2019-03-21T19:47:22.782Z,4.63
2019-03-21T19:49:43.496Z,4.67
2019-03-21T19:52:13.627Z,4.43
2019-03-21T19:54:43.816Z,4.17
2019-03-21T19:57:14.277Z,4.13
2019-03-21T19:59:44.489Z,4.43
2019-03-21T20:02:15.680Z,4.23
2019-03-21T20:04:48.282Z,4.50
2019-03-21T20:07:17.902Z,4.27
2019-03-21T20:09:48.134Z,4.90
2019-03-21T20:12:18.357Z,4.60
2019-03-21T20:14:48.495Z,4.33
2019-03-21T20:17:22.065Z,4.97
2019-03-21T20:19:53.353Z,4.57
2019-03-21T20:22:23.986Z,5.07
2019-03-21T20:24:54.308Z,4.57
2019-03-21T20:27:24.431Z,4.43
2019-03-21T20:29:55.839Z,5.50
2019-03-21T20:32:27.348Z,5.87
2019-03-21T20:34:57.423Z,5.23
2019-03-21T20:37:27.857Z,5.67
2019-03-21T20:39:58.143Z,6.23
2019-03-21T20:42:28.433Z,4.90
2019-03-21T20:44:58.800Z,5.70
2019-03-21T20:47:29.669Z,5.07
2019-03-21T20:50:00.065Z,5.77
2019-03-21T20:52:30.338Z,7.10
2019-03-21T20:55:00.522Z,6.10
2019-03-21T20:57:30.535Z,5.93
2019-03-21T21:00:00.701Z,5.80
2019-03-21T21:02:30.908Z,6.13
2019-03-21T21:05:01.301Z,5.37
2019-03-21T21:07:31.486Z,5.23
2019-03-21T21:10:02.111Z,5.50
2019-03-21T21:12:32.481Z,5.50
2019-03-21T21:15:02.665Z,6.23
2019-03-21T21:17:32.976Z,5.57
2019-03-21T21:20:03.292Z,5.60
2019-03-21T21:22:33.386Z,5.10
2019-03-21T21:25:03.952Z,5.73
2019-03-21T21:27:34.259Z,5.40
2019-03-21T21:30:05.733Z,5.00
2019-03-21T21:32:36.144Z,5.23
2019-03-21T21:35:07.821Z,4.77
2019-03-21T21:37:38.789Z,4.63
2019-03-21T21:40:09.851Z,4.87
2019-03-21T21:42:39.967Z,5.00
2019-03-21T21:45:10.557Z,5.43
2019-03-21T21:47:40.873Z,5.47
2019-03-21T21:50:11.791Z,5.80
2019-03-21T21:52:42.511Z,4.97
2019-03-21T21:55:13.041Z,4.60
2019-03-21T21:57:43.256Z,4.70
2019-03-21T22:00:15.657Z,5.17
2019-03-21T22:02:45.920Z,5.27
2019-03-21T22:05:16.189Z,4.80
2019-03-21T22:07:46.791Z,5.27
2019-03-21T22:10:17.047Z,5.17
2019-03-21T22:12:47.239Z,5.23
2019-03-21T22:15:18.143Z,4.67
2019-03-21T22:17:48.556Z,5.40
2019-03-21T22:20:18.955Z,4.53
2019-03-21T22:22:49.255Z,5.13
2019-03-21T22:25:19.374Z,5.07
2019-03-21T22:27:49.534Z,5.27
2019-03-21T22:30:20.208Z,5.50
2019-03-21T22:32:50.483Z,5.23
2019-03-21T22:35:23.748Z,4.63
2019-03-21T22:37:53.853Z,5.33
2019-03-21T22:40:24.008Z,15.53
2019-03-21T22:42:54.154Z,7.37
2019-03-21T22:45:24.453Z,5.50
2019-03-21T22:47:54.608Z,5.27
2019-03-21T22:50:24.914Z,5.40
2019-03-21T22:52:55.307Z,5.10
2019-03-21T22:55:25.544Z,5.40
2019-03-21T22:57:55.648Z,5.53
2019-03-21T23:00:34.868Z,4.83
2019-03-21T23:03:05.325Z,4.77
2019-03-21T23:05:35.423Z,5.63
2019-03-21T23:08:05.608Z,5.50
2019-03-21T23:10:35.963Z,4.87
2019-03-21T23:13:06.218Z,5.03
2019-03-21T23:15:36.327Z,5.90
2019-03-21T23:18:06.759Z,5.47
2019-03-21T23:20:36.999Z,4.93
2019-03-21T23:23:07.315Z,5.10
2019-03-21T23:25:37.400Z,5.27
2019-03-21T23:28:07.559Z,5.37
2019-03-21T23:30:37.849Z,5.33
2019-03-21T23:33:09.021Z,5.90
2019-03-21T23:35:39.147Z,6.10
2019-03-21T23:38:09.439Z,5.40
2019-03-21T23:40:39.643Z,5.30
2019-03-21T23:43:09.867Z,4.93
2019-03-21T23:45:39.993Z,5.93
2019-03-21T23:48:10.185Z,5.57
2019-03-21T23:50:40.556Z,5.90
2019-03-21T23:53:10.760Z,5.50
2019-03-21T23:55:40.932Z,5.60
2019-03-21T23:58:11.202Z,5.77
